Addison, Maine
Current Conditions -  °F | °C
As of 4:15 AM on Monday 22 Dec 2014 (Local Time) from KBHB Reporting Station
Overcast Overcast  
Wind Chill: 21°   Ceiling: 3500
Heat Index: 27°   Visibility: 10mi
Dew Point: 27°   Wind: 5mph
Humidity: 100%   Direction: 360°N
Pressure: 30.4"   Gusts: NA
Location:  44.62°N, 67.74°W
Report Text: KBHB 220915Z AUTO 36004KT 10SM OVC035 M03/M03 A3040 RMK AO1
Loading
Personal Weather Stations






























Interactive Weather Map New forecast layout! Learn more

10-Day Weather Forecast

Advertisements
Track Severe Weather on mobile